Time;durP1;ratioP1;P1;durP2;ratioP2;P2;SDS_P1;SDS_P2;PMS_P1;PMS_P2;Temp;Humidity;BMP_temperature;BMP_pressure;BME280_temperature;BME280_humidity;BME280_pressure;Samples;Min_cycle;Max_cycle;Signal;HPM_P1;HPM_P2
2021/07/12 00:00:35;;;;;;;0.98;0.80;;;;;;;;;;5034815;28;20207;-46
2021/07/12 00:03:02;;;;;;;1.42;0.65;;;;;;;;;;5034753;28;20199;-46
2021/07/12 00:05:28;;;;;;;2.83;0.80;;;;;;;;;;5035603;28;20180;-46
2021/07/12 00:07:54;;;;;;;0.80;0.80;;;;;;;;;;5037013;28;20183;-46
2021/07/12 00:10:22;;;;;;;0.80;0.80;;;;;;;;;;5037461;28;20482;-46
2021/07/12 00:12:48;;;;;;;0.70;0.70;;;;;;;;;;5037489;28;20290;-46
2021/07/12 00:15:16;;;;;;;2.17;0.88;;;;;;;;;;5037493;28;20168;-46
2021/07/12 00:17:42;;;;;;;0.80;0.80;;;;;;;;;;5037051;28;20536;-46
2021/07/12 00:20:09;;;;;;;1.50;0.85;;;;;;;;;;5037216;28;20196;-46
2021/07/12 00:22:35;;;;;;;1.38;0.77;;;;;;;;;;5037424;28;20163;-46
2021/07/12 00:28:06;;;;;;;0.88;0.80;;;;;;;;;;5037440;28;20154;-46
2021/07/12 00:30:32;;;;;;;1.55;0.60;;;;;;;;;;5037489;28;20175;-46
2021/07/12 00:32:58;;;;;;;0.70;0.70;;;;;;;;;;5037315;28;20171;-46
2021/07/12 00:35:25;;;;;;;1.00;0.80;;;;;;;;;;5037258;28;20213;-46
2021/07/12 00:37:51;;;;;;;1.35;0.80;;;;;;;;;;5037133;28;20200;-45
2021/07/12 00:40:18;;;;;;;0.70;0.70;;;;;;;;;;5037156;28;20211;-46
2021/07/12 00:42:44;;;;;;;2.25;0.90;;;;;;;;;;5037231;28;20190;-46
2021/07/12 00:45:21;;;;;;;2.08;0.93;;;;;;;;;;5037181;28;20159;-46
2021/07/12 00:47:48;;;;;;;0.75;0.75;;;;;;;;;;5036894;28;20238;-46
2021/07/12 00:50:14;;;;;;;1.80;1.00;;;;;;;;;;5037082;28;20178;-46
2021/07/12 00:52:40;;;;;;;0.82;0.82;;;;;;;;;;5037027;28;20199;-46
2021/07/12 00:55:33;;;;;;;1.88;0.88;;;;;;;;;;5037025;28;20164;-46
2021/07/12 00:58:00;;;;;;;0.70;0.70;;;;;;;;;;5034808;28;20512;-46
2021/07/12 01:00:26;;;;;;;0.70;0.70;;;;;;;;;;5036870;28;20290;-46
2021/07/12 01:02:53;;;;;;;2.85;0.82;;;;;;;;;;5036910;28;20168;-46
2021/07/12 01:05:20;;;;;;;0.65;0.60;;;;;;;;;;5034898;28;20182;-46
2021/07/12 01:07:47;;;;;;;0.70;0.70;;;;;;;;;;5033745;28;20210;-45
2021/07/12 01:10:14;;;;;;;0.93;0.70;;;;;;;;;;5034446;28;20183;-46
2021/07/12 01:12:47;;;;;;;0.70;0.70;;;;;;;;;;5032247;28;20183;-46
2021/07/12 01:15:15;;;;;;;0.80;0.80;;;;;;;;;;5034378;28;20270;-46
2021/07/12 01:18:00;;;;;;;0.65;0.65;;;;;;;;;;5033693;28;20456;-46
2021/07/12 01:21:02;;;;;;;0.55;0.55;;;;;;;;;;5034459;28;20244;-46
2021/07/12 01:23:39;;;;;;;0.60;0.60;;;;;;;;;;5031606;28;20176;-46
2021/07/12 01:26:24;;;;;;;0.60;0.60;;;;;;;;;;5033414;28;20233;-46
2021/07/12 01:29:02;;;;;;;0.75;0.75;;;;;;;;;;5033667;28;20183;-46
2021/07/12 01:31:46;;;;;;;0.60;0.60;;;;;;;;;;5034043;28;20601;-46
2021/07/12 01:34:15;;;;;;;0.93;0.63;;;;;;;;;;5033793;28;20199;-46
2021/07/12 01:36:49;;;;;;;0.70;0.70;;;;;;;;;;5033807;28;20255;-46
2021/07/12 01:39:19;;;;;;;2.67;0.70;;;;;;;;;;5033888;28;20228;-46
2021/07/12 01:42:03;;;;;;;1.10;0.70;;;;;;;;;;5034062;28;20180;-45
2021/07/12 01:44:48;;;;;;;0.80;0.80;;;;;;;;;;5033996;28;20206;-45
2021/07/12 01:47:21;;;;;;;0.73;0.68;;;;;;;;;;5033688;28;20171;-45
2021/07/12 01:49:48;;;;;;;1.10;0.90;;;;;;;;;;5033856;28;20438;-45
2021/07/12 01:52:23;;;;;;;0.50;0.50;;;;;;;;;;5033793;28;20188;-46
2021/07/12 01:55:11;;;;;;;0.75;0.75;;;;;;;;;;5033719;28;20495;-46
2021/07/12 01:57:58;;;;;;;0.50;0.50;;;;;;;;;;5033306;28;20423;-45
2021/07/12 02:00:24;;;;;;;0.93;0.80;;;;;;;;;;5019343;28;20239;-45
2021/07/12 02:02:53;;;;;;;0.98;0.88;;;;;;;;;;5022476;28;20199;-46
2021/07/12 02:05:20;;;;;;;0.60;0.60;;;;;;;;;;5034119;28;20187;-46
2021/07/12 02:07:47;;;;;;;1.05;1.00;;;;;;;;;;5032335;28;20204;-46
2021/07/12 02:10:14;;;;;;;1.20;0.70;;;;;;;;;;5033325;28;20247;-46
2021/07/12 02:12:42;;;;;;;0.70;0.70;;;;;;;;;;5033137;28;20245;-46
2021/07/12 02:15:08;;;;;;;0.75;0.75;;;;;;;;;;5033741;28;20203;-46
2021/07/12 02:17:35;;;;;;;0.60;0.60;;;;;;;;;;5033130;28;20461;-46
2021/07/12 02:20:02;;;;;;;6.80;0.80;;;;;;;;;;5033521;28;20203;-46
2021/07/12 02:22:29;;;;;;;0.75;0.75;;;;;;;;;;5033212;28;20186;-45
2021/07/12 02:24:56;;;;;;;0.50;0.50;;;;;;;;;;5035232;28;20234;-45
2021/07/12 02:27:23;;;;;;;0.68;0.68;;;;;;;;;;5035993;28;20479;-45
2021/07/12 02:29:49;;;;;;;0.70;0.70;;;;;;;;;;5036646;28;20738;-45
2021/07/12 02:32:18;;;;;;;3.53;0.80;;;;;;;;;;5037446;28;20310;-45
2021/07/12 02:34:44;;;;;;;1.08;0.90;;;;;;;;;;5036875;28;20175;-45
2021/07/12 02:37:11;;;;;;;1.20;0.80;;;;;;;;;;5036775;28;20172;-45
2021/07/12 02:39:37;;;;;;;0.95;0.80;;;;;;;;;;5036808;28;20202;-45
2021/07/12 02:42:03;;;;;;;1.38;0.60;;;;;;;;;;5024425;28;20180;-45
2021/07/12 02:44:31;;;;;;;1.67;0.80;;;;;;;;;;5017192;28;20168;-45
2021/07/12 02:46:58;;;;;;;0.70;0.70;;;;;;;;;;5016852;28;20168;-46
2021/07/12 02:49:24;;;;;;;0.70;0.70;;;;;;;;;;5032052;28;20188;-46
2021/07/12 02:51:54;;;;;;;0.80;0.63;;;;;;;;;;5036693;28;20202;-46
2021/07/12 02:54:23;;;;;;;1.23;0.70;;;;;;;;;;5036750;28;20176;-46
2021/07/12 02:56:49;;;;;;;0.52;0.50;;;;;;;;;;5016906;28;20234;-46
2021/07/12 02:59:15;;;;;;;0.60;0.60;;;;;;;;;;5032807;28;20631;-46
2021/07/12 03:01:41;;;;;;;1.67;0.80;;;;;;;;;;5036416;28;20187;-46
2021/07/12 03:04:07;;;;;;;0.77;0.70;;;;;;;;;;5036265;28;20795;-46
2021/07/12 03:06:33;;;;;;;1.33;0.65;;;;;;;;;;5036365;28;20230;-45
2021/07/12 03:09:12;;;;;;;0.70;0.70;;;;;;;;;;5030582;28;20176;-45
2021/07/12 03:11:42;;;;;;;1.15;0.80;;;;;;;;;;5018291;28;20511;-45
2021/07/12 03:14:10;;;;;;;0.93;0.80;;;;;;;;;;5036692;28;20168;-46
2021/07/12 03:16:38;;;;;;;0.68;0.60;;;;;;;;;;5036066;28;20194;-46
2021/07/12 03:19:05;;;;;;;1.25;0.50;;;;;;;;;;5036092;28;20200;-46
2021/07/12 03:21:31;;;;;;;1.00;0.75;;;;;;;;;;5036471;28;20187;-46
2021/07/12 03:23:59;;;;;;;0.93;0.77;;;;;;;;;;5031351;28;20493;-46
2021/07/12 03:26:25;;;;;;;0.70;0.70;;;;;;;;;;5036119;28;20174;-46
2021/07/12 03:28:53;;;;;;;0.57;0.57;;;;;;;;;;5035916;28;20179;-46
2021/07/12 03:31:22;;;;;;;0.95;0.70;;;;;;;;;;5035880;28;20226;-46
2021/07/12 03:33:51;;;;;;;0.70;0.70;;;;;;;;;;5035844;28;20180;-46
2021/07/12 03:36:17;;;;;;;0.70;0.70;;;;;;;;;;5035017;28;20211;-46
2021/07/12 03:38:43;;;;;;;0.60;0.60;;;;;;;;;;5035874;28;20172;-46
2021/07/12 03:41:09;;;;;;;0.43;0.43;;;;;;;;;;5035937;28;20821;-46
2021/07/12 03:43:35;;;;;;;2.00;0.80;;;;;;;;;;5035970;28;20191;-46
2021/07/12 03:46:02;;;;;;;0.80;0.80;;;;;;;;;;5023629;28;20211;-46
2021/07/12 03:48:54;;;;;;;1.42;0.82;;;;;;;;;;5023666;28;20203;-46
2021/07/12 03:51:21;;;;;;;1.75;0.98;;;;;;;;;;5033141;28;20267;-46
2021/07/12 03:53:47;;;;;;;0.80;0.80;;;;;;;;;;5035516;28;20172;-46
2021/07/12 03:56:13;;;;;;;1.55;0.80;;;;;;;;;;5035233;28;20191;-46
2021/07/12 03:58:40;;;;;;;2.40;0.73;;;;;;;;;;5035371;28;20225;-46
2021/07/12 04:01:06;;;;;;;0.80;0.80;;;;;;;;;;5035626;28;20179;-46
2021/07/12 04:03:32;;;;;;;0.82;0.80;;;;;;;;;;5035101;28;20259;-46
2021/07/12 04:05:58;;;;;;;1.75;0.63;;;;;;;;;;5023211;28;20199;-46
2021/07/12 04:08:24;;;;;;;1.15;0.80;;;;;;;;;;5033604;28;20195;-46
2021/07/12 04:10:50;;;;;;;1.65;0.65;;;;;;;;;;5035227;28;20266;-45
2021/07/12 04:13:16;;;;;;;0.88;0.88;;;;;;;;;;5035430;28;20172;-45
2021/07/12 04:15:43;;;;;;;0.85;0.70;;;;;;;;;;5034036;28;20551;-46
2021/07/12 04:18:09;;;;;;;1.75;0.82;;;;;;;;;;5033630;28;20175;-46
2021/07/12 04:20:36;;;;;;;1.13;1.00;;;;;;;;;;5034980;28;20522;-45
2021/07/12 04:23:02;;;;;;;6.75;2.10;;;;;;;;;;5034555;28;20164;-45
2021/07/12 04:25:28;;;;;;;15.52;3.05;;;;;;;;;;5034624;28;20183;-45
2021/07/12 04:27:56;;;;;;;12.75;2.90;;;;;;;;;;5033814;28;20175;-46
2021/07/12 04:30:22;;;;;;;14.02;2.75;;;;;;;;;;5034263;28;20164;-46
2021/07/12 04:32:48;;;;;;;12.70;2.42;;;;;;;;;;5029015;28;20267;-45
2021/07/12 04:35:14;;;;;;;8.65;2.20;;;;;;;;;;5022952;28;20283;-45
2021/07/12 04:37:41;;;;;;;7.43;2.15;;;;;;;;;;5028982;28;20574;-45
2021/07/12 04:40:07;;;;;;;5.40;1.98;;;;;;;;;;5034270;28;20565;-45
2021/07/12 04:42:33;;;;;;;5.93;1.95;;;;;;;;;;5034580;28;20184;-45
2021/07/12 04:45:01;;;;;;;7.63;2.00;;;;;;;;;;5034468;28;20190;-45
2021/07/12 04:47:27;;;;;;;5.53;2.28;;;;;;;;;;5032819;28;20212;-45
2021/07/12 04:49:53;;;;;;;5.43;2.00;;;;;;;;;;5034075;28;20526;-45
2021/07/12 04:52:19;;;;;;;4.95;1.73;;;;;;;;;;5034318;28;20199;-46
2021/07/12 04:54:45;;;;;;;4.03;1.80;;;;;;;;;;5034633;28;20247;-46
2021/07/12 04:57:11;;;;;;;4.53;1.85;;;;;;;;;;5034211;28;20233;-46
2021/07/12 04:59:40;;;;;;;3.17;1.73;;;;;;;;;;5034152;28;20488;-46
2021/07/12 05:02:06;;;;;;;5.38;1.60;;;;;;;;;;5032828;28;20295;-46
2021/07/12 05:04:33;;;;;;;3.85;1.73;;;;;;;;;;5034059;28;20183;-46
2021/07/12 05:06:59;;;;;;;5.72;1.80;;;;;;;;;;5034053;28;20286;-45
2021/07/12 05:09:26;;;;;;;3.50;1.40;;;;;;;;;;5032586;28;20187;-45
2021/07/12 05:11:52;;;;;;;4.10;1.80;;;;;;;;;;5034429;28;20168;-45
2021/07/12 05:14:18;;;;;;;4.88;1.60;;;;;;;;;;5033594;28;20198;-45
2021/07/12 05:16:44;;;;;;;4.05;1.95;;;;;;;;;;5033322;28;20172;-45
2021/07/12 05:19:14;;;;;;;2.05;1.38;;;;;;;;;;5033010;28;20206;-45
2021/07/12 05:21:40;;;;;;;2.65;1.70;;;;;;;;;;5034149;28;20176;-45
2021/07/12 05:24:06;;;;;;;3.63;1.48;;;;;;;;;;5026939;28;20183;-45
2021/07/12 05:26:32;;;;;;;4.25;1.63;;;;;;;;;;5033135;28;20179;-45
2021/07/12 05:28:58;;;;;;;5.28;1.98;;;;;;;;;;5033225;28;20172;-45
2021/07/12 05:31:24;;;;;;;1.85;1.73;;;;;;;;;;5033634;28;20191;-45
2021/07/12 05:33:50;;;;;;;5.32;2.42;;;;;;;;;;5033293;28;20168;-45
2021/07/12 05:36:16;;;;;;;2.40;1.90;;;;;;;;;;5032411;28;20276;-45
2021/07/12 05:38:42;;;;;;;5.13;2.35;;;;;;;;;;5033321;28;20191;-48
2021/07/12 05:41:08;;;;;;;3.00;2.25;;;;;;;;;;5034314;28;20164;-48
2021/07/12 05:43:34;;;;;;;2.28;1.83;;;;;;;;;;5033926;28;20591;-48
2021/07/12 05:46:00;;;;;;;3.30;2.22;;;;;;;;;;5033746;28;20201;-48
2021/07/12 05:48:26;;;;;;;4.28;2.10;;;;;;;;;;5034094;28;20741;-48
2021/07/12 05:50:52;;;;;;;3.00;1.92;;;;;;;;;;5026829;28;20187;-48
2021/07/12 05:53:19;;;;;;;3.13;1.90;;;;;;;;;;5014428;28;20756;-48
2021/07/12 05:55:45;;;;;;;3.65;1.80;;;;;;;;;;5032872;28;20198;-48
2021/07/12 05:58:11;;;;;;;3.10;2.08;;;;;;;;;;5034061;28;20172;-48
2021/07/12 06:00:37;;;;;;;2.38;1.77;;;;;;;;;;5019563;28;20482;-48
2021/07/12 06:03:03;;;;;;;5.00;1.77;;;;;;;;;;5028614;28;20184;-48
2021/07/12 06:05:29;;;;;;;3.58;1.90;;;;;;;;;;5035106;28;20563;-48
2021/07/12 06:07:56;;;;;;;1.85;1.67;;;;;;;;;;5035573;28;20172;-48
2021/07/12 06:10:22;;;;;;;2.53;1.60;;;;;;;;;;5036964;28;20632;-48
2021/07/12 06:12:48;;;;;;;2.05;1.50;;;;;;;;;;5036623;28;20267;-48
2021/07/12 06:15:14;;;;;;;2.78;1.90;;;;;;;;;;5036958;28;20226;-48
2021/07/12 06:17:40;;;;;;;2.03;1.60;;;;;;;;;;5036250;28;20172;-48
2021/07/12 06:20:07;;;;;;;2.85;1.60;;;;;;;;;;5018631;28;21023;-48
2021/07/12 06:22:33;;;;;;;3.67;1.73;;;;;;;;;;5017717;28;20165;-48
2021/07/12 06:24:59;;;;;;;2.47;1.80;;;;;;;;;;5034600;28;20176;-48
2021/07/12 06:27:25;;;;;;;2.20;1.88;;;;;;;;;;5036679;28;20743;-48
2021/07/12 06:29:51;;;;;;;1.50;1.40;;;;;;;;;;5037382;28;20172;-48
2021/07/12 06:32:17;;;;;;;1.83;1.73;;;;;;;;;;5036677;28;20222;-48
2021/07/12 06:34:43;;;;;;;2.92;1.55;;;;;;;;;;5036985;28;20290;-48
2021/07/12 06:37:09;;;;;;;1.77;1.60;;;;;;;;;;5018133;28;20184;-48
2021/07/12 06:39:35;;;;;;;3.70;1.70;;;;;;;;;;5017334;28;20237;-48
2021/07/12 06:42:01;;;;;;;2.28;1.50;;;;;;;;;;5017133;28;20532;-48
2021/07/12 06:44:27;;;;;;;1.92;1.48;;;;;;;;;;5017475;28;20164;-48
2021/07/12 06:46:53;;;;;;;3.40;1.75;;;;;;;;;;5025724;28;20626;-48
2021/07/12 06:49:19;;;;;;;2.03;1.80;;;;;;;;;;5036175;28;20188;-48
2021/07/12 06:51:45;;;;;;;2.53;1.80;;;;;;;;;;5036956;28;20307;-48
2021/07/12 06:54:11;;;;;;;1.65;1.55;;;;;;;;;;5036391;28;20194;-48
2021/07/12 06:56:37;;;;;;;1.55;1.25;;;;;;;;;;5036086;28;20226;-48
2021/07/12 06:59:03;;;;;;;2.25;1.63;;;;;;;;;;5036665;28;20204;-48
2021/07/12 07:01:29;;;;;;;1.63;1.50;;;;;;;;;;5021667;28;20179;-49
2021/07/12 07:03:55;;;;;;;1.70;1.60;;;;;;;;;;5036298;28;20222;-48
2021/07/12 07:06:21;;;;;;;2.28;1.60;;;;;;;;;;5036326;28;20199;-48
2021/07/12 07:08:47;;;;;;;4.82;1.67;;;;;;;;;;5035706;28;20207;-48
2021/07/12 07:11:13;;;;;;;1.77;1.67;;;;;;;;;;5035741;28;20176;-48
2021/07/12 07:13:39;;;;;;;1.58;1.42;;;;;;;;;;5035244;28;20462;-48
2021/07/12 07:16:05;;;;;;;3.38;1.60;;;;;;;;;;5023229;28;20168;-48
2021/07/12 07:18:32;;;;;;;2.10;1.60;;;;;;;;;;5035101;28;20168;-48
2021/07/12 07:20:58;;;;;;;2.50;1.65;;;;;;;;;;5034531;28;20286;-48
2021/07/12 07:23:24;;;;;;;1.63;1.52;;;;;;;;;;5030878;28;20235;-48
2021/07/12 07:25:50;;;;;;;1.80;1.60;;;;;;;;;;5014868;28;20176;-48
2021/07/12 07:28:17;;;;;;;1.70;1.60;;;;;;;;;;5021798;28;20245;-48
2021/07/12 07:30:43;;;;;;;2.40;1.20;;;;;;;;;;5035489;28;20763;-48
2021/07/12 07:33:09;;;;;;;1.58;1.48;;;;;;;;;;5036019;28;20286;-48
2021/07/12 07:35:35;;;;;;;2.17;1.63;;;;;;;;;;5036305;28;20278;-48
2021/07/12 07:38:01;;;;;;;1.67;1.58;;;;;;;;;;5035728;28;20270;-48
2021/07/12 07:40:27;;;;;;;3.22;1.50;;;;;;;;;;5036061;28;20558;-48
2021/07/12 07:42:53;;;;;;;1.20;1.20;;;;;;;;;;5036368;28;20469;-48
2021/07/12 07:45:19;;;;;;;1.75;1.40;;;;;;;;;;5034056;28;20175;-48
2021/07/12 07:47:46;;;;;;;2.08;1.58;;;;;;;;;;5035157;28;20314;-48
2021/07/12 07:50:13;;;;;;;1.60;1.50;;;;;;;;;;5036003;28;20168;-48
2021/07/12 07:52:39;;;;;;;1.70;1.35;;;;;;;;;;5035818;28;20190;-48
2021/07/12 07:55:08;;;;;;;1.73;1.60;;;;;;;;;;5035779;28;20551;-48
2021/07/12 07:57:34;;;;;;;1.65;1.40;;;;;;;;;;5035272;28;20179;-48
2021/07/12 08:00:00;;;;;;;1.65;1.55;;;;;;;;;;5034922;28;20199;-48
2021/07/12 08:02:26;;;;;;;1.60;1.50;;;;;;;;;;5015727;28;20487;-48
2021/07/12 08:04:52;;;;;;;2.55;1.70;;;;;;;;;;5021832;28;20276;-48
2021/07/12 08:07:20;;;;;;;1.50;1.40;;;;;;;;;;5034544;28;20164;-48
2021/07/12 08:09:46;;;;;;;1.38;1.27;;;;;;;;;;5034767;28;20495;-49
2021/07/12 08:12:12;;;;;;;1.55;1.45;;;;;;;;;;5034858;28;20223;-48
2021/07/12 08:14:38;;;;;;;1.58;1.40;;;;;;;;;;5035378;28;20489;-48
2021/07/12 08:17:04;;;;;;;1.60;1.30;;;;;;;;;;5034126;28;20191;-48
2021/07/12 08:19:30;;;;;;;1.30;1.27;;;;;;;;;;5034788;28;20222;-48
2021/07/12 08:21:56;;;;;;;1.60;1.50;;;;;;;;;;5033021;28;20294;-48
2021/07/12 08:24:22;;;;;;;2.17;1.40;;;;;;;;;;5034236;28;20191;-48
2021/07/12 08:26:48;;;;;;;1.95;1.73;;;;;;;;;;5015795;28;20165;-48
2021/07/12 08:29:17;;;;;;;1.67;1.58;;;;;;;;;;5035046;28;20191;-48
2021/07/12 08:31:43;;;;;;;1.40;1.30;;;;;;;;;;5035244;28;20195;-48
2021/07/12 08:34:09;;;;;;;1.95;1.65;;;;;;;;;;5033524;28;20211;-48
2021/07/12 08:36:35;;;;;;;1.60;1.50;;;;;;;;;;5034349;28;20302;-48
2021/07/12 08:39:01;;;;;;;1.63;1.52;;;;;;;;;;5034807;28;20206;-48
2021/07/12 08:41:28;;;;;;;1.50;1.40;;;;;;;;;;5052515;28;20183;-49
2021/07/12 08:43:53;;;;;;;1.70;1.60;;;;;;;;;;5054853;28;20175;-48
2021/07/12 08:46:20;;;;;;;1.50;1.40;;;;;;;;;;5054264;28;20171;-48
2021/07/12 08:48:46;;;;;;;1.42;1.33;;;;;;;;;;5054870;28;20454;-48
2021/07/12 08:51:12;;;;;;;1.48;1.38;;;;;;;;;;5017613;28;20176;-48
2021/07/12 08:53:38;;;;;;;1.50;1.40;;;;;;;;;;5019809;28;20177;-48
2021/07/12 08:56:05;;;;;;;1.80;1.60;;;;;;;;;;5029058;28;20194;-48
2021/07/12 08:58:34;;;;;;;1.48;1.38;;;;;;;;;;5034437;28;20186;-48
2021/07/12 09:01:02;;;;;;;1.55;1.45;;;;;;;;;;5034612;28;20298;-48
2021/07/12 09:03:29;;;;;;;2.22;1.70;;;;;;;;;;5034513;28;20172;-48
2021/07/12 09:05:56;;;;;;;1.65;1.55;;;;;;;;;;5033296;28;20253;-48
2021/07/12 09:08:38;;;;;;;2.20;1.40;;;;;;;;;;5034619;28;20731;-48
2021/07/12 09:11:24;;;;;;;2.25;1.60;;;;;;;;;;5029439;28;20198;-48
2021/07/12 09:13:59;;;;;;;1.52;1.42;;;;;;;;;;5033901;28;20183;-48
2021/07/12 09:16:35;;;;;;;1.15;1.13;;;;;;;;;;5034065;28;20186;-48
2021/07/12 09:19:19;;;;;;;1.38;1.27;;;;;;;;;;5034411;28;20188;-48
2021/07/12 09:21:53;;;;;;;1.25;1.15;;;;;;;;;;5031564;28;20551;-48
2021/07/12 09:24:21;;;;;;;1.50;1.40;;;;;;;;;;5027872;28;20175;-48
2021/07/12 09:26:48;;;;;;;1.70;1.40;;;;;;;;;;5033901;28;20247;-48
2021/07/12 09:29:15;;;;;;;1.30;1.23;;;;;;;;;;5034310;28;20184;-48
2021/07/12 09:31:41;;;;;;;1.60;1.50;;;;;;;;;;5034245;28;20225;-48
2021/07/12 09:34:07;;;;;;;1.55;1.45;;;;;;;;;;5036160;28;20178;-48
2021/07/12 09:36:33;;;;;;;1.52;1.42;;;;;;;;;;5037213;28;20203;-48
2021/07/12 09:39:15;;;;;;;1.90;1.50;;;;;;;;;;5037641;28;20196;-48
2021/07/12 09:41:41;;;;;;;1.50;1.40;;;;;;;;;;5038418;28;20178;-48
2021/07/12 09:44:08;;;;;;;1.88;1.58;;;;;;;;;;5038246;28;20258;-48
2021/07/12 09:46:34;;;;;;;1.80;1.70;;;;;;;;;;5037166;28;20186;-48
2021/07/12 09:49:23;;;;;;;1.40;1.30;;;;;;;;;;5028135;28;20241;-48
2021/07/12 09:51:54;;;;;;;1.38;1.35;;;;;;;;;;5037754;28;20329;-48
2021/07/12 09:54:29;;;;;;;1.63;1.52;;;;;;;;;;5037926;28;20250;-49
2021/07/12 09:56:56;;;;;;;1.70;1.60;;;;;;;;;;5022215;28;20570;-49
2021/07/12 09:59:22;;;;;;;1.60;1.50;;;;;;;;;;5034605;28;20204;-49
2021/07/12 10:01:52;;;;;;;3.42;1.50;;;;;;;;;;5037659;28;20716;-49
2021/07/12 10:04:19;;;;;;;1.40;1.30;;;;;;;;;;5037636;28;20172;-49
2021/07/12 10:06:46;;;;;;;1.20;1.15;;;;;;;;;;5037379;28;20191;-49
2021/07/12 10:09:12;;;;;;;1.33;1.23;;;;;;;;;;5037826;28;20183;-49
2021/07/12 10:11:39;;;;;;;1.38;1.27;;;;;;;;;;5027700;28;20339;-49
2021/07/12 10:14:05;;;;;;;1.73;1.50;;;;;;;;;;5017863;28;20612;-49
2021/07/12 10:16:31;;;;;;;1.50;1.40;;;;;;;;;;5022547;28;20622;-49
2021/07/12 10:18:58;;;;;;;1.52;1.42;;;;;;;;;;5036942;28;20183;-48
2021/07/12 10:21:24;;;;;;;1.45;1.35;;;;;;;;;;5037391;28;20530;-49
2021/07/12 10:23:57;;;;;;;1.70;1.60;;;;;;;;;;5037334;28;20180;-48
2021/07/12 10:26:42;;;;;;;1.63;1.42;;;;;;;;;;5036632;28;20202;-48
2021/07/12 10:29:12;;;;;;;1.60;1.50;;;;;;;;;;5036783;28;20494;-48
2021/07/12 10:31:53;;;;;;;1.50;1.40;;;;;;;;;;5037348;28;20501;-48
2021/07/12 10:34:40;;;;;;;1.50;1.40;;;;;;;;;;5037278;28;20202;-48
2021/07/12 10:37:16;;;;;;;1.50;1.40;;;;;;;;;;5030175;28;20175;-48
2021/07/12 10:40:04;;;;;;;1.40;1.30;;;;;;;;;;5036695;28;20289;-48
2021/07/12 10:42:45;;;;;;;1.42;1.33;;;;;;;;;;5037242;28;20187;-48
2021/07/12 10:45:15;;;;;;;1.38;1.27;;;;;;;;;;5036118;28;20183;-48
2021/07/12 10:47:44;;;;;;;2.30;1.42;;;;;;;;;;5036043;28;20180;-48
2021/07/12 10:50:29;;;;;;;1.23;1.15;;;;;;;;;;5037125;28;20176;-48
2021/07/12 10:52:55;;;;;;;1.33;1.25;;;;;;;;;;5035198;28;20606;-48
2021/07/12 10:55:31;;;;;;;1.45;1.35;;;;;;;;;;5036766;28;20188;-48
2021/07/12 10:58:16;;;;;;;1.40;1.30;;;;;;;;;;5036348;28;20176;-48
2021/07/12 11:00:42;;;;;;;1.38;1.30;;;;;;;;;;5036860;28;20206;-48
2021/07/12 11:03:28;;;;;;;1.33;1.23;;;;;;;;;;5036725;28;20182;-48
2021/07/12 11:05:54;;;;;;;1.20;1.20;;;;;;;;;;5035914;28;20514;-49
2021/07/12 11:08:38;;;;;;;1.67;1.50;;;;;;;;;;5034942;28;20259;-48
2021/07/12 11:11:05;;;;;;;1.52;1.42;;;;;;;;;;5031354;28;20184;-49
2021/07/12 11:14:05;;;;;;;1.48;1.30;;;;;;;;;;5036796;28;20221;-48
2021/07/12 11:16:47;;;;;;;1.40;1.30;;;;;;;;;;5032684;28;20602;-48
2021/07/12 11:19:19;;;;;;;1.30;1.30;;;;;;;;;;5036363;28;20616;-48
2021/07/12 11:21:46;;;;;;;1.33;1.33;;;;;;;;;;5036473;28;20179;-48
2021/07/12 11:24:12;;;;;;;1.80;1.35;;;;;;;;;;5035768;28;20179;-48
2021/07/12 11:26:39;;;;;;;1.38;1.27;;;;;;;;;;5035694;28;20202;-48
2021/07/12 11:29:20;;;;;;;1.20;1.20;;;;;;;;;;5036458;28;20175;-48
2021/07/12 11:31:56;;;;;;;1.00;1.00;;;;;;;;;;5036152;28;20187;-48
2021/07/12 11:34:23;;;;;;;1.20;1.20;;;;;;;;;;5035750;28;20180;-48
2021/07/12 11:36:50;;;;;;;1.50;1.40;;;;;;;;;;5036056;28;20250;-48
2021/07/12 11:39:20;;;;;;;1.20;1.20;;;;;;;;;;5036065;28;20595;-48
2021/07/12 11:41:47;;;;;;;1.40;1.30;;;;;;;;;;5016669;28;20187;-48
2021/07/12 11:44:13;;;;;;;1.10;1.10;;;;;;;;;;5035369;28;20176;-48
2021/07/12 11:46:40;;;;;;;1.05;1.05;;;;;;;;;;5035721;28;20172;-48
2021/07/12 11:49:07;;;;;;;1.23;1.20;;;;;;;;;;5036043;28;20179;-48
2021/07/12 11:51:33;;;;;;;1.27;1.15;;;;;;;;;;5035957;28;20271;-48
2021/07/12 11:53:59;;;;;;;1.58;1.45;;;;;;;;;;5035747;28;20264;-49
2021/07/12 11:56:25;;;;;;;1.20;1.10;;;;;;;;;;5052096;28;20194;-48
2021/07/12 11:58:57;;;;;;;1.40;1.30;;;;;;;;;;5025756;28;20467;-48
2021/07/12 12:01:24;;;;;;;1.45;1.35;;;;;;;;;;5015969;28;20192;-48
2021/07/12 12:04:04;;;;;;;1.33;1.25;;;;;;;;;;5015799;28;20561;-49
2021/07/12 12:06:31;;;;;;;1.20;1.10;;;;;;;;;;5026365;28;20173;-48
2021/07/12 12:08:57;;;;;;;1.45;1.27;;;;;;;;;;5015605;28;20173;-48
2021/07/12 12:11:31;;;;;;;1.50;1.40;;;;;;;;;;5032546;28;20266;-49
2021/07/12 12:13:57;;;;;;;1.40;1.30;;;;;;;;;;5028903;28;20181;-48
2021/07/12 12:16:27;;;;;;;1.67;1.10;;;;;;;;;;5030838;28;20198;-49
2021/07/12 12:18:54;;;;;;;1.15;1.15;;;;;;;;;;5034749;28;20180;-49
2021/07/12 12:21:21;;;;;;;1.20;1.20;;;;;;;;;;5034899;28;20176;-49
2021/07/12 12:23:47;;;;;;;1.08;1.08;;;;;;;;;;5034938;28;20186;-48
2021/07/12 12:26:16;;;;;;;1.73;1.20;;;;;;;;;;5034602;28;20207;-49
2021/07/12 12:28:45;;;;;;;2.45;1.33;;;;;;;;;;5035177;28;20168;-49
2021/07/12 12:31:11;;;;;;;1.13;1.13;;;;;;;;;;5022733;28;20176;-48
2021/07/12 12:33:41;;;;;;;1.13;1.13;;;;;;;;;;5015484;28;20165;-48
2021/07/12 12:36:11;;;;;;;2.15;1.15;;;;;;;;;;5014539;28;20247;-48
2021/07/12 12:38:49;;;;;;;1.50;1.10;;;;;;;;;;5021887;28;20184;-48
2021/07/12 12:41:18;;;;;;;1.33;1.30;;;;;;;;;;5034559;28;20575;-49
2021/07/12 12:43:58;;;;;;;1.15;1.15;;;;;;;;;;5034981;28;20168;-49
2021/07/12 12:46:24;;;;;;;2.15;1.30;;;;;;;;;;5032955;28;20203;-48
2021/07/12 12:48:50;;;;;;;1.48;1.10;;;;;;;;;;5034488;28;20184;-49
2021/07/12 12:51:17;;;;;;;1.17;1.17;;;;;;;;;;5017771;28;20223;-48
2021/07/12 12:53:43;;;;;;;1.20;1.10;;;;;;;;;;5015114;28;20172;-49
2021/07/12 12:56:10;;;;;;;1.25;1.20;;;;;;;;;;5029279;28;20247;-48
2021/07/12 12:58:36;;;;;;;1.15;1.15;;;;;;;;;;5023903;28;20283;-49
2021/07/12 13:01:09;;;;;;;1.30;1.30;;;;;;;;;;5014822;28;20292;-48
2021/07/12 13:03:35;;;;;;;1.00;1.00;;;;;;;;;;5014955;28;20165;-49
2021/07/12 13:06:04;;;;;;;1.30;1.20;;;;;;;;;;5030640;28;20495;-49
2021/07/12 13:08:31;;;;;;;1.13;1.10;;;;;;;;;;5033893;28;20186;-46
2021/07/12 13:11:04;;;;;;;1.00;1.00;;;;;;;;;;5034410;28;20436;-46
2021/07/12 13:13:31;;;;;;;0.80;0.80;;;;;;;;;;5032630;28;20179;-46
2021/07/12 13:16:11;;;;;;;1.00;1.00;;;;;;;;;;5032265;28;20462;-46
2021/07/12 13:18:37;;;;;;;1.10;1.10;;;;;;;;;;5031423;28;20184;-46
2021/07/12 13:21:03;;;;;;;1.25;1.10;;;;;;;;;;5028701;28;20219;-46
2021/07/12 13:23:29;;;;;;;1.20;1.20;;;;;;;;;;5034035;28;20180;-46
2021/07/12 13:26:10;;;;;;;1.00;1.00;;;;;;;;;;5031057;28;20176;-46
2021/07/12 13:28:36;;;;;;;1.83;1.20;;;;;;;;;;5026224;28;20172;-46
2021/07/12 13:31:02;;;;;;;1.75;1.48;;;;;;;;;;5022759;28;20180;-46
2021/07/12 13:33:28;;;;;;;4.65;1.65;;;;;;;;;;5031288;28;20262;-46
2021/07/12 13:35:55;;;;;;;4.43;1.42;;;;;;;;;;5031915;28;20636;-46
2021/07/12 13:38:21;;;;;;;3.00;1.33;;;;;;;;;;5032441;28;20184;-46
2021/07/12 13:40:48;;;;;;;4.78;1.40;;;;;;;;;;5031938;28;20598;-46
2021/07/12 13:43:14;;;;;;;5.07;1.50;;;;;;;;;;5032233;28;20183;-46
2021/07/12 13:45:40;;;;;;;3.80;1.38;;;;;;;;;;5032186;28;20157;-46
2021/07/12 13:48:06;;;;;;;2.30;1.30;;;;;;;;;;5032155;28;20197;-46
2021/07/12 13:50:32;;;;;;;2.10;1.30;;;;;;;;;;5033542;28;20222;-46
2021/07/12 13:52:59;;;;;;;1.50;1.40;;;;;;;;;;5033902;28;20563;-48
2021/07/12 13:55:26;;;;;;;1.80;1.50;;;;;;;;;;5033346;28;20187;-46
2021/07/12 13:57:55;;;;;;;2.13;1.60;;;;;;;;;;5033407;28;20547;-46
2021/07/12 14:00:21;;;;;;;3.22;1.60;;;;;;;;;;5033780;28;20230;-46
2021/07/12 14:02:48;;;;;;;1.70;1.60;;;;;;;;;;5033839;28;20168;-46
2021/07/12 14:05:15;;;;;;;1.95;1.75;;;;;;;;;;5033916;28;20172;-46
2021/07/12 14:07:41;;;;;;;2.58;1.50;;;;;;;;;;5027153;28;20574;-46
2021/07/12 14:10:11;;;;;;;1.60;1.50;;;;;;;;;;5030626;28;20188;-46
2021/07/12 14:12:38;;;;;;;1.70;1.30;;;;;;;;;;5032415;28;20188;-46
2021/07/12 14:15:08;;;;;;;3.38;1.50;;;;;;;;;;5033426;28;20270;-46
2021/07/12 14:17:34;;;;;;;3.00;1.73;;;;;;;;;;5033235;28;20200;-46
2021/07/12 14:20:00;;;;;;;1.63;1.52;;;;;;;;;;5034963;28;20211;-46
2021/07/12 14:22:26;;;;;;;1.85;1.58;;;;;;;;;;5036921;28;20233;-46
2021/07/12 14:24:52;;;;;;;1.48;1.38;;;;;;;;;;5037055;28;20216;-48
2021/07/12 14:27:18;;;;;;;1.52;1.42;;;;;;;;;;5036828;28;20556;-48
2021/07/12 14:29:45;;;;;;;1.60;1.50;;;;;;;;;;5037351;28;20179;-49
2021/07/12 14:32:12;;;;;;;1.70;1.60;;;;;;;;;;5037235;28;20439;-49
2021/07/12 14:34:38;;;;;;;1.48;1.30;;;;;;;;;;5036803;28;20180;-49
2021/07/12 14:37:04;;;;;;;1.75;1.65;;;;;;;;;;5036520;28;20168;-49
2021/07/12 14:39:30;;;;;;;1.60;1.50;;;;;;;;;;5036633;28;20433;-48
2021/07/12 14:41:56;;;;;;;1.83;1.67;;;;;;;;;;5037022;28;20164;-49
2021/07/12 14:44:22;;;;;;;1.60;1.50;;;;;;;;;;5036885;28;20497;-48
2021/07/12 14:46:48;;;;;;;1.50;1.40;;;;;;;;;;5036591;28;20178;-48
2021/07/12 14:49:15;;;;;;;1.58;1.48;;;;;;;;;;5037154;28;20168;-48
2021/07/12 14:51:41;;;;;;;1.33;1.25;;;;;;;;;;5036864;28;20187;-48
2021/07/12 14:54:07;;;;;;;1.65;1.55;;;;;;;;;;5036202;28;20263;-48